createdAt,value
2023-04-15T00:00:59.872Z,4.13
2023-04-15T00:03:28.738Z,4.40
2023-04-15T00:05:57.558Z,6.82
2023-04-15T00:08:25.965Z,4.07
2023-04-15T00:10:54.742Z,3.70
2023-04-15T00:13:24.443Z,5.05
2023-04-15T00:15:52.759Z,4.35
2023-04-15T00:18:20.997Z,3.40
2023-04-15T00:20:49.480Z,3.58
2023-04-15T00:23:18.024Z,4.85
2023-04-15T00:25:46.974Z,5.50
2023-04-15T00:28:15.373Z,6.53
2023-04-15T00:30:45.815Z,5.55
2023-04-15T00:33:14.844Z,5.32
2023-04-15T00:35:43.182Z,6.68
2023-04-15T00:38:11.523Z,6.07
2023-04-15T00:40:40.250Z,5.53
2023-04-15T00:43:08.630Z,4.00
2023-04-15T00:45:37.411Z,5.78
2023-04-15T00:48:07.286Z,5.05
2023-04-15T00:50:35.724Z,3.88
2023-04-15T00:53:04.069Z,6.38
2023-04-15T00:55:33.457Z,5.53
2023-04-15T00:58:01.717Z,5.88
2023-04-15T01:00:31.316Z,4.47
2023-04-15T01:03:00.437Z,4.88
2023-04-15T01:05:31.428Z,7.03
2023-04-15T01:07:59.823Z,5.63
2023-04-15T01:10:28.556Z,6.18
2023-04-15T01:12:56.902Z,4.45
2023-04-15T01:15:27.551Z,6.78
2023-04-15T01:17:56.741Z,7.45
2023-04-15T01:20:25.299Z,5.75
2023-04-15T01:22:56.711Z,4.40
2023-04-15T01:25:33.389Z,5.47
2023-04-15T01:28:02.397Z,3.45
2023-04-15T01:30:34.893Z,3.70
2023-04-15T01:33:03.206Z,5.82
2023-04-15T01:35:32.193Z,4.70
2023-04-15T01:38:06.231Z,5.22
2023-04-15T01:40:36.269Z,6.10
2023-04-15T01:43:04.957Z,3.75
2023-04-15T01:45:33.326Z,4.50
2023-04-15T01:48:01.673Z,3.75
2023-04-15T01:50:30.321Z,4.50
2023-04-15T01:52:58.652Z,4.38
2023-04-15T01:55:27.121Z,5.13
2023-04-15T01:57:56.913Z,4.95
2023-04-15T02:00:25.318Z,4.10
2023-04-15T02:02:54.045Z,5.30
2023-04-15T02:05:22.370Z,3.80
2023-04-15T02:07:51.165Z,3.78
2023-04-15T02:10:19.558Z,4.00
2023-04-15T02:12:47.893Z,5.90
2023-04-15T02:15:17.625Z,5.13
2023-04-15T02:17:50.978Z,5.72
2023-04-15T02:20:21.160Z,5.45
2023-04-15T02:22:49.731Z,4.25
2023-04-15T02:25:18.280Z,5.80
2023-04-15T02:27:46.561Z,4.07
2023-04-15T02:30:14.831Z,3.88
2023-04-15T02:32:45.203Z,5.80
2023-04-15T02:35:13.763Z,5.53
2023-04-15T02:37:45.807Z,5.00
2023-04-15T02:40:14.910Z,2.78
2023-04-15T02:42:44.303Z,5.15
2023-04-15T02:47:46.037Z,5.00
2023-04-15T02:50:15.231Z,6.28
2023-04-15T02:52:44.751Z,5.28
2023-04-15T02:55:13.397Z,4.25
2023-04-15T02:57:41.905Z,5.57
2023-04-15T03:00:12.873Z,5.60
2023-04-15T03:02:47.252Z,3.80
2023-04-15T03:05:16.335Z,5.25
2023-04-15T03:07:53.532Z,4.88
2023-04-15T03:10:23.064Z,4.07
2023-04-15T03:12:51.349Z,5.05
2023-04-15T03:15:23.120Z,6.68
2023-04-15T03:17:55.165Z,5.80
2023-04-15T03:20:23.521Z,5.85
2023-04-15T03:22:51.946Z,5.65
2023-04-15T03:25:22.246Z,5.97
2023-04-15T03:27:50.567Z,5.18
2023-04-15T03:30:19.442Z,7.93
2023-04-15T03:32:47.986Z,5.68
2023-04-15T03:35:18.293Z,6.30
2023-04-15T03:37:46.702Z,6.88
2023-04-15T03:40:15.023Z,6.28
2023-04-15T03:42:43.367Z,3.88
2023-04-15T03:45:12.633Z,5.95
2023-04-15T03:47:41.012Z,5.38
2023-04-15T03:50:09.807Z,4.30
2023-04-15T03:52:39.529Z,5.55
2023-04-15T03:55:08.586Z,4.90
2023-04-15T03:57:39.073Z,8.05
2023-04-15T04:00:10.213Z,5.13
2023-04-15T04:02:41.171Z,4.15
2023-04-15T04:05:10.636Z,6.70
2023-04-15T04:07:40.642Z,5.53
2023-04-15T04:10:09.688Z,3.78
2023-04-15T04:12:37.927Z,4.30
2023-04-15T04:15:07.003Z,5.72
2023-04-15T04:17:35.881Z,4.93
2023-04-15T04:20:05.752Z,5.30
2023-04-15T04:22:41.281Z,7.13
2023-04-15T04:25:11.349Z,6.32
2023-04-15T04:27:39.690Z,9.27
2023-04-15T04:30:09.264Z,4.40
2023-04-15T04:32:37.726Z,6.32
2023-04-15T04:35:07.171Z,6.03
2023-04-15T04:37:35.588Z,5.55
2023-04-15T04:40:06.014Z,5.30
2023-04-15T04:42:34.312Z,6.93
2023-04-15T04:45:02.641Z,4.03
2023-04-15T04:47:31.408Z,4.40
2023-04-15T04:49:59.629Z,6.13
2023-04-15T04:52:27.944Z,5.07
2023-04-15T04:54:56.332Z,4.20
2023-04-15T04:57:25.956Z,4.82
2023-04-15T04:59:54.161Z,5.50
2023-04-15T05:02:22.702Z,4.20
2023-04-15T05:04:54.402Z,4.45
2023-04-15T05:07:24.046Z,4.78
2023-04-15T05:09:52.485Z,4.93
2023-04-15T05:12:20.771Z,5.20
2023-04-15T05:14:50.462Z,5.75
2023-04-15T05:17:18.897Z,7.57
2023-04-15T05:19:47.367Z,4.53
2023-04-15T05:22:16.033Z,5.38
2023-04-15T05:24:44.274Z,3.97
2023-04-15T05:27:12.746Z,3.97
2023-04-15T05:29:41.039Z,2.92
2023-04-15T05:32:10.823Z,4.97
2023-04-15T05:34:39.015Z,3.47
2023-04-15T05:37:07.396Z,3.70
2023-04-15T05:39:35.754Z,3.63
2023-04-15T05:42:05.950Z,3.85
2023-04-15T05:44:34.407Z,5.82
2023-04-15T05:47:03.636Z,4.85
2023-04-15T05:49:33.384Z,3.05
2023-04-15T05:52:01.665Z,2.70
2023-04-15T05:54:30.000Z,3.58
2023-04-15T05:56:59.011Z,5.95
2023-04-15T05:59:28.367Z,3.72
2023-04-15T06:01:57.220Z,3.30
2023-04-15T06:04:25.638Z,5.80
2023-04-15T06:06:55.411Z,4.68
2023-04-15T06:09:23.725Z,4.47
2023-04-15T06:11:53.236Z,5.00
2023-04-15T06:14:21.629Z,4.82
2023-04-15T06:16:49.847Z,4.13
2023-04-15T06:19:18.451Z,3.00
2023-04-15T06:21:46.898Z,5.18
2023-04-15T06:24:16.666Z,3.30
2023-04-15T06:26:44.935Z,5.05
2023-04-15T06:29:13.181Z,3.05
2023-04-15T06:31:41.594Z,4.97
2023-04-15T06:34:09.953Z,4.47
2023-04-15T06:36:38.490Z,4.18
2023-04-15T06:39:06.749Z,4.00
2023-04-15T06:41:37.250Z,3.45
2023-04-15T06:44:06.095Z,4.40
2023-04-15T06:46:34.318Z,4.10
2023-04-15T06:49:03.632Z,3.25
2023-04-15T06:51:32.815Z,4.47
2023-04-15T06:54:02.111Z,3.33
2023-04-15T06:56:31.050Z,6.43
2023-04-15T06:59:00.907Z,3.47
2023-04-15T07:01:29.545Z,6.20
2023-04-15T07:03:57.994Z,6.50
2023-04-15T07:06:26.219Z,3.28
2023-04-15T07:08:55.746Z,3.75
2023-04-15T07:11:24.014Z,4.75
2023-04-15T07:13:52.656Z,2.75
2023-04-15T07:16:22.872Z,3.60
2023-04-15T07:18:51.259Z,2.58
2023-04-15T07:21:19.495Z,4.22
2023-04-15T07:23:47.639Z,5.22
2023-04-15T07:26:16.008Z,4.00
2023-04-15T07:28:44.202Z,2.47
2023-04-15T07:31:12.505Z,4.20
2023-04-15T07:33:42.265Z,4.65
2023-04-15T07:36:11.610Z,3.35
2023-04-15T07:38:40.248Z,2.83
2023-04-15T07:41:09.283Z,3.50
2023-04-15T07:43:37.483Z,2.58
2023-04-15T07:46:06.975Z,3.63
2023-04-15T07:48:37.411Z,3.40
2023-04-15T07:51:08.619Z,4.10
2023-04-15T07:53:37.405Z,4.38
2023-04-15T07:56:06.726Z,3.05
2023-04-15T07:58:34.908Z,4.00
2023-04-15T08:01:03.295Z,3.63
2023-04-15T08:03:32.021Z,3.28
2023-04-15T08:06:00.426Z,3.33
2023-04-15T08:08:30.105Z,5.28
2023-04-15T08:10:58.802Z,2.35
2023-04-15T08:13:28.125Z,2.83
2023-04-15T08:16:20.829Z,4.20
2023-04-15T08:18:50.126Z,5.00
2023-04-15T08:21:19.308Z,3.53
2023-04-15T08:23:50.770Z,3.78
2023-04-15T08:26:19.482Z,5.82
2023-04-15T08:28:48.457Z,5.00
2023-04-15T08:31:18.032Z,4.15
2023-04-15T08:33:46.931Z,3.35
2023-04-15T08:36:15.174Z,5.63
2023-04-15T08:38:45.636Z,4.32
2023-04-15T08:41:22.174Z,2.80
2023-04-15T08:43:55.096Z,5.25
2023-04-15T08:46:24.432Z,4.10
2023-04-15T08:48:53.552Z,4.28
2023-04-15T08:51:23.902Z,3.10
2023-04-15T08:53:53.395Z,3.20
2023-04-15T08:56:26.974Z,5.35
2023-04-15T08:58:55.773Z,3.55
2023-04-15T09:01:24.688Z,5.82
2023-04-15T09:03:54.607Z,3.00
2023-04-15T09:06:23.442Z,5.57
2023-04-15T09:08:52.993Z,5.20
2023-04-15T09:11:23.363Z,2.88
2023-04-15T09:13:52.315Z,3.33
2023-04-15T09:16:20.721Z,3.60
2023-04-15T09:18:49.127Z,3.40
2023-04-15T09:21:19.257Z,4.05
2023-04-15T09:23:58.413Z,3.40
2023-04-15T09:26:40.248Z,3.53
2023-04-15T09:29:09.863Z,5.03
2023-04-15T09:31:38.640Z,4.80
2023-04-15T09:34:07.378Z,4.72
2023-04-15T09:36:53.953Z,4.20
2023-04-15T09:39:22.615Z,4.15
2023-04-15T09:44:44.815Z,5.40
2023-04-15T09:47:28.969Z,5.22
2023-04-15T09:49:58.524Z,5.72
2023-04-15T09:52:27.442Z,5.03
2023-04-15T09:54:56.541Z,5.47
2023-04-15T09:57:25.255Z,3.90
2023-04-15T09:59:55.026Z,4.30
2023-04-15T10:02:23.536Z,4.93
2023-04-15T10:04:53.785Z,5.57
2023-04-15T10:07:23.738Z,3.13
2023-04-15T10:09:53.084Z,4.95
2023-04-15T10:12:21.861Z,3.70
2023-04-15T10:14:56.382Z,4.20
2023-04-15T10:17:24.704Z,4.47
2023-04-15T10:19:55.722Z,6.32
2023-04-15T10:22:24.579Z,6.97
2023-04-15T10:24:53.760Z,4.65
2023-04-15T10:27:23.269Z,7.00
2023-04-15T10:29:52.545Z,7.60
2023-04-15T10:32:23.953Z,5.53
2023-04-15T10:34:54.654Z,5.88
2023-04-15T10:37:24.151Z,6.90
2023-04-15T10:39:52.455Z,5.38
2023-04-15T10:42:21.392Z,6.47
2023-04-15T10:44:51.893Z,4.68
2023-04-15T10:47:22.559Z,6.20
2023-04-15T10:49:52.953Z,4.78
2023-04-15T10:52:25.916Z,4.93
2023-04-15T10:55:04.539Z,6.10
2023-04-15T10:57:38.997Z,6.85
2023-04-15T11:00:14.904Z,6.15
2023-04-15T11:02:47.833Z,7.28
2023-04-15T11:05:16.917Z,6.70
2023-04-15T11:07:54.730Z,5.95
2023-04-15T11:10:56.529Z,8.05
2023-04-15T11:13:29.564Z,6.25
2023-04-15T11:16:02.733Z,6.72
2023-04-15T11:18:34.538Z,4.75
2023-04-15T11:21:05.589Z,6.70
2023-04-15T11:23:39.364Z,5.88
2023-04-15T11:26:11.919Z,5.13
2023-04-15T11:28:42.264Z,5.03
2023-04-15T11:31:12.410Z,6.28
2023-04-15T11:33:47.852Z,6.55
2023-04-15T11:36:16.218Z,6.70
2023-04-15T11:38:45.942Z,5.88
2023-04-15T11:41:14.430Z,6.22
2023-04-15T11:43:42.818Z,13.13
2023-04-15T11:46:11.049Z,15.45
2023-04-15T11:48:45.570Z,14.00
2023-04-15T11:51:15.106Z,9.48
2023-04-15T11:53:46.147Z,10.13
2023-04-15T11:56:20.284Z,7.90
2023-04-15T11:58:50.935Z,6.85
2023-04-15T12:01:19.798Z,6.50
2023-04-15T12:03:50.789Z,6.50
2023-04-15T12:06:20.587Z,6.18
2023-04-15T12:09:11.135Z,7.10
2023-04-15T12:11:45.386Z,7.15
2023-04-15T12:14:22.806Z,8.70
2023-04-15T12:16:55.104Z,6.30
2023-04-15T12:19:29.509Z,5.97
2023-04-15T12:22:01.473Z,9.02
2023-04-15T12:24:32.158Z,5.20
2023-04-15T12:27:03.793Z,5.87
2023-04-15T12:32:07.317Z,7.65
2023-04-15T12:34:38.563Z,7.95
2023-04-15T12:37:09.511Z,5.40
2023-04-15T12:39:39.494Z,5.90
2023-04-15T12:42:08.372Z,6.00
2023-04-15T12:44:37.343Z,5.78
2023-04-15T12:47:06.002Z,7.82
2023-04-15T12:49:34.659Z,6.32
2023-04-15T12:52:04.693Z,7.97
2023-04-15T12:54:33.491Z,5.32
2023-04-15T12:57:04.715Z,7.05
2023-04-15T12:59:35.102Z,4.97
2023-04-15T13:02:04.027Z,4.88
2023-04-15T13:04:32.503Z,4.43
2023-04-15T13:07:00.988Z,4.45
2023-04-15T13:09:31.093Z,4.72
2023-04-15T13:11:59.370Z,3.05
2023-04-15T13:14:28.206Z,4.25
2023-04-15T13:16:56.500Z,4.32
2023-04-15T13:19:25.519Z,5.13
2023-04-15T13:21:53.897Z,3.75
2023-04-15T13:24:22.158Z,3.50
2023-04-15T13:26:52.186Z,4.32
2023-04-15T13:29:20.495Z,3.28
2023-04-15T13:31:48.771Z,3.42
2023-04-15T13:34:16.997Z,3.83
2023-04-15T13:36:46.068Z,4.07
2023-04-15T13:39:14.332Z,3.75
2023-04-15T13:41:42.657Z,6.55
2023-04-15T13:44:12.459Z,4.80
2023-04-15T13:46:41.950Z,5.47
2023-04-15T13:49:10.187Z,4.00
2023-04-15T13:51:38.518Z,5.93
2023-04-15T13:54:06.848Z,5.00
2023-04-15T13:56:35.272Z,6.30
2023-04-15T13:59:03.893Z,6.28
2023-04-15T14:01:33.764Z,4.85
2023-04-15T14:04:02.612Z,5.43
2023-04-15T14:06:32.201Z,5.15
2023-04-15T14:09:00.516Z,5.57
2023-04-15T14:11:30.038Z,4.45
2023-04-15T14:13:58.349Z,4.72
2023-04-15T14:16:26.744Z,4.68
2023-04-15T14:18:56.657Z,5.93
2023-04-15T14:21:24.951Z,7.13
2023-04-15T14:23:53.457Z,4.57
2023-04-15T14:26:21.799Z,4.70
2023-04-15T14:28:50.093Z,8.57
2023-04-15T14:31:18.562Z,4.70
2023-04-15T14:33:47.371Z,3.85
2023-04-15T14:36:17.063Z,2.80
2023-04-15T14:41:13.805Z,4.28
2023-04-15T14:43:42.107Z,3.88
2023-04-15T14:46:11.512Z,4.28
2023-04-15T14:48:39.850Z,4.60
2023-04-15T14:51:08.355Z,4.30
2023-04-15T14:53:37.946Z,4.18
2023-04-15T14:56:06.914Z,3.92
2023-04-15T14:58:35.145Z,4.72
2023-04-15T15:01:04.334Z,3.60
2023-04-15T15:03:32.847Z,3.80
2023-04-15T15:06:01.271Z,4.55
2023-04-15T15:08:29.996Z,5.35
2023-04-15T15:10:59.811Z,3.88
2023-04-15T15:13:28.004Z,5.03
2023-04-15T15:15:56.350Z,4.68
2023-04-15T15:18:25.625Z,3.72
2023-04-15T15:20:53.883Z,4.60
2023-04-15T15:23:22.081Z,3.42
2023-04-15T15:25:50.491Z,5.28
2023-04-15T15:28:21.740Z,6.18
2023-04-15T15:30:50.203Z,3.40
2023-04-15T15:33:18.483Z,6.15
2023-04-15T15:35:46.964Z,5.05
2023-04-15T15:38:15.263Z,5.05
2023-04-15T15:40:43.652Z,4.13
2023-04-15T15:43:11.881Z,4.75
2023-04-15T15:45:41.966Z,5.78
2023-04-15T15:48:10.243Z,5.45
2023-04-15T15:50:38.498Z,5.03
2023-04-15T15:53:06.787Z,3.80
2023-04-15T15:55:35.300Z,5.63
2023-04-15T15:58:03.597Z,5.40
2023-04-15T16:00:32.554Z,5.68
2023-04-15T16:03:07.195Z,5.80
2023-04-15T16:05:36.425Z,5.70
2023-04-15T16:08:04.769Z,5.43
2023-04-15T16:10:33.215Z,4.97
2023-04-15T16:13:01.996Z,6.43
2023-04-15T16:15:30.483Z,5.72
2023-04-15T16:17:58.838Z,5.30
2023-04-15T16:20:28.913Z,6.03
2023-04-15T16:22:58.171Z,4.93
2023-04-15T16:25:26.557Z,4.05
2023-04-15T16:28:05.382Z,5.70
2023-04-15T16:30:37.976Z,5.13
2023-04-15T16:33:07.334Z,6.28
2023-04-15T16:35:37.498Z,6.57
2023-04-15T16:38:06.421Z,4.28
2023-04-15T16:40:34.956Z,4.82
2023-04-15T16:43:04.353Z,6.03
2023-04-15T16:45:32.579Z,5.18
2023-04-15T16:48:00.924Z,4.57
2023-04-15T16:50:29.509Z,6.15
2023-04-15T16:52:59.147Z,4.32
2023-04-15T16:55:27.889Z,5.55
2023-04-15T16:58:02.246Z,35.03
2023-04-15T17:00:32.375Z,18.73
2023-04-15T17:03:01.715Z,13.60
2023-04-15T17:05:30.611Z,7.10
2023-04-15T17:08:00.482Z,5.45
2023-04-15T17:10:29.319Z,3.88
2023-04-15T17:12:58.383Z,86.88
2023-04-15T17:15:27.368Z,146.13
2023-04-15T17:17:55.826Z,193.45
2023-04-15T17:20:24.113Z,240.95
2023-04-15T17:22:52.389Z,231.00
2023-04-15T17:25:22.193Z,144.80
2023-04-15T17:27:50.558Z,71.03
2023-04-15T17:30:18.850Z,40.67
2023-04-15T17:32:47.226Z,19.42
2023-04-15T17:35:15.639Z,12.70
2023-04-15T17:37:45.173Z,98.75
2023-04-15T17:40:14.897Z,105.22
2023-04-15T17:42:44.551Z,83.40
2023-04-15T17:45:13.200Z,119.88
2023-04-15T17:47:43.393Z,151.02
2023-04-15T17:50:11.885Z,201.82
2023-04-15T17:52:40.287Z,163.57
2023-04-15T17:55:09.529Z,85.93
2023-04-15T17:57:37.910Z,100.63
2023-04-15T18:00:11.980Z,74.20
2023-04-15T18:02:43.768Z,107.68
2023-04-15T18:05:12.519Z,208.25
2023-04-15T18:07:41.194Z,149.90
2023-04-15T18:10:11.129Z,148.60
2023-04-15T18:12:39.592Z,112.85
2023-04-15T18:15:10.654Z,81.70
2023-04-15T18:17:39.076Z,60.95
2023-04-15T18:20:08.540Z,122.50
2023-04-15T18:22:36.912Z,174.15
2023-04-15T18:25:05.986Z,194.35
2023-04-15T18:27:35.788Z,151.65
2023-04-15T18:30:04.200Z,118.70
2023-04-15T18:32:33.814Z,68.80
2023-04-15T18:35:02.125Z,38.53
2023-04-15T18:37:30.502Z,23.33
2023-04-15T18:39:59.153Z,13.80
2023-04-15T18:42:27.509Z,12.70
2023-04-15T18:44:55.903Z,9.50
2023-04-15T18:47:26.480Z,7.05
2023-04-15T18:49:58.379Z,5.30
2023-04-15T18:52:26.809Z,8.30
2023-04-15T18:54:55.031Z,5.63
2023-04-15T18:57:31.119Z,7.53
2023-04-15T19:00:01.487Z,4.88
2023-04-15T19:02:30.005Z,4.97
2023-04-15T19:05:01.773Z,5.25
2023-04-15T19:07:31.509Z,6.30
2023-04-15T19:09:59.928Z,7.20
2023-04-15T19:12:28.645Z,5.10
2023-04-15T19:14:56.914Z,5.80
2023-04-15T19:17:25.575Z,6.32
2023-04-15T19:19:54.057Z,7.43
2023-04-15T19:22:23.883Z,6.00
2023-04-15T19:24:52.944Z,6.85
2023-04-15T19:27:21.221Z,6.97
2023-04-15T19:29:49.513Z,5.15
2023-04-15T19:32:18.216Z,8.43
2023-04-15T19:34:46.495Z,6.13
2023-04-15T19:37:14.957Z,5.60
2023-04-15T19:39:44.696Z,6.68
2023-04-15T19:42:12.963Z,7.30
2023-04-15T19:44:42.798Z,5.68
2023-04-15T19:47:11.335Z,5.97
2023-04-15T19:49:39.772Z,5.15
2023-04-15T19:52:08.312Z,5.38
2023-04-15T19:54:36.517Z,5.60
2023-04-15T19:57:06.210Z,6.18
2023-04-15T19:59:34.438Z,6.32
2023-04-15T20:02:03.354Z,6.57
2023-04-15T20:04:31.884Z,5.55
2023-04-15T20:07:00.244Z,5.63
2023-04-15T20:09:28.499Z,4.68
2023-04-15T20:12:09.621Z,7.05
2023-04-15T20:14:46.576Z,6.65
2023-04-15T20:17:16.217Z,5.28
2023-04-15T20:19:44.708Z,6.68
2023-04-15T20:22:13.086Z,7.80
2023-04-15T20:24:41.280Z,5.97
2023-04-15T20:27:09.550Z,4.30
2023-04-15T20:29:38.151Z,5.40
2023-04-15T20:32:11.318Z,4.93
2023-04-15T20:34:40.100Z,5.25
2023-04-15T20:37:08.547Z,5.43
2023-04-15T20:39:36.800Z,3.58
2023-04-15T20:42:05.301Z,4.15
2023-04-15T20:44:34.570Z,4.75
2023-04-15T20:47:02.941Z,7.18
2023-04-15T20:49:36.205Z,3.55
2023-04-15T20:52:05.253Z,2.60
2023-04-15T20:54:33.611Z,3.88
2023-04-15T20:57:02.601Z,3.80
2023-04-15T20:59:32.131Z,4.32
2023-04-15T21:02:00.586Z,50.28
2023-04-15T21:04:29.010Z,79.60
2023-04-15T21:06:58.706Z,156.82
2023-04-15T21:09:27.013Z,186.30
2023-04-15T21:12:01.222Z,328.52
2023-04-15T21:14:31.039Z,213.13
2023-04-15T21:16:59.475Z,126.78
2023-04-15T21:19:27.753Z,147.00
2023-04-15T21:21:56.087Z,153.73
2023-04-15T21:24:26.330Z,198.63
2023-04-15T21:26:54.821Z,371.35
2023-04-15T21:29:23.128Z,266.70
2023-04-15T21:31:51.512Z,201.15
2023-04-15T21:34:19.905Z,129.90
2023-04-15T21:36:50.185Z,71.88
2023-04-15T21:39:18.529Z,96.72
2023-04-15T21:41:48.184Z,136.93
2023-04-15T21:44:16.410Z,171.10
2023-04-15T21:46:45.651Z,219.02
2023-04-15T21:49:14.919Z,239.13
2023-04-15T21:51:43.167Z,192.25
2023-04-15T21:54:11.740Z,496.83
2023-04-15T21:56:39.997Z,164.45
2023-04-15T21:59:09.723Z,125.97
2023-04-15T22:01:38.005Z,77.25
2023-04-15T22:04:07.497Z,37.53
2023-04-15T22:06:36.152Z,25.45
2023-04-15T22:09:04.594Z,18.20
2023-04-15T22:11:32.937Z,12.98
2023-04-15T22:14:01.328Z,10.73
2023-04-15T22:16:30.949Z,8.15
2023-04-15T22:18:59.174Z,4.57
2023-04-15T22:21:27.808Z,5.82
2023-04-15T22:24:38.553Z,4.55
2023-04-15T22:26:44.727Z,4.35
2023-04-15T22:29:13.067Z,4.75
2023-04-15T22:31:42.986Z,4.13
2023-04-15T22:34:11.310Z,3.50
2023-04-15T22:36:39.453Z,4.05
2023-04-15T22:39:07.798Z,2.65
2023-04-15T22:41:36.276Z,2.75
2023-04-15T22:44:04.557Z,2.97
2023-04-15T22:46:32.840Z,2.42
2023-04-15T22:49:02.720Z,2.33
2023-04-15T22:51:31.565Z,1.65
2023-04-15T22:53:59.772Z,1.90
2023-04-15T22:56:28.105Z,1.88
2023-04-15T22:58:56.474Z,1.42
2023-04-15T23:01:24.813Z,1.75
2023-04-15T23:03:57.473Z,1.95
2023-04-15T23:06:38.182Z,2.55
2023-04-15T23:09:06.629Z,2.28
2023-04-15T23:11:34.858Z,2.05
2023-04-15T23:14:03.191Z,2.67
2023-04-15T23:16:31.511Z,3.20
2023-04-15T23:18:59.722Z,1.92
2023-04-15T23:21:29.123Z,2.55
2023-04-15T23:23:58.786Z,2.58
2023-04-15T23:26:27.439Z,1.90
2023-04-15T23:28:55.631Z,2.50
2023-04-15T23:31:23.998Z,3.55
2023-04-15T23:33:52.267Z,2.60
2023-04-15T23:36:20.542Z,2.70
2023-04-15T23:38:49.102Z,1.98
2023-04-15T23:41:18.670Z,3.28
2023-04-15T23:43:47.036Z,2.88
2023-04-15T23:46:15.309Z,2.72
2023-04-15T23:48:43.568Z,3.53
2023-04-15T23:51:11.879Z,3.20
2023-04-15T23:53:40.119Z,3.38
2023-04-15T23:56:08.903Z,1.63
2023-04-15T23:58:38.501Z,3.45
